createdAt,value
2023-04-01T00:00:07.358Z,135.8
2023-04-01T00:01:10.581Z,128.12
2023-04-01T00:02:13.915Z,107.64
2023-04-01T00:03:17.222Z,143.48
2023-04-01T00:04:20.571Z,212.6
2023-04-01T00:05:23.874Z,151.16
2023-04-01T00:06:27.097Z,128.12
2023-04-01T00:07:30.459Z,174.2
2023-04-01T00:08:32.743Z,135.8
2023-04-01T00:09:35.150Z,107.64
2023-04-01T00:10:37.352Z,143.48
2023-04-01T00:11:39.522Z,107.64
2023-04-01T00:12:42.958Z,189.56
2023-04-01T00:13:46.268Z,158.84
2023-04-01T00:14:49.569Z,128.12
2023-04-01T00:15:52.823Z,158.84
2023-04-01T00:16:56.109Z,143.48
2023-04-01T00:17:59.288Z,166.52
2023-04-01T00:19:02.743Z,189.56
2023-04-01T00:20:05.896Z,189.56
2023-04-01T00:21:09.264Z,204.92
2023-04-01T00:22:12.431Z,204.92
2023-04-01T00:23:15.949Z,151.16
2023-04-01T00:24:19.179Z,235.64
2023-04-01T00:25:21.336Z,181.88
2023-04-01T00:26:24.620Z,227.96
2023-04-01T00:27:28.167Z,174.2
2023-04-01T00:28:31.213Z,243.32
2023-04-01T00:29:34.691Z,181.88
2023-04-01T00:30:37.927Z,220.28
2023-04-01T00:31:41.243Z,268.92
2023-04-01T00:32:43.515Z,253.56
2023-04-01T00:33:45.959Z,261.24
2023-04-01T00:34:48.190Z,181.88
2023-04-01T00:35:50.433Z,235.64
2023-04-01T00:36:53.635Z,220.28
2023-04-01T00:37:57.135Z,284.28
2023-04-01T00:39:00.179Z,284.28
2023-04-01T00:40:03.657Z,261.24
2023-04-01T00:41:06.958Z,220.28
2023-04-01T00:42:10.116Z,261.24
2023-04-01T00:43:13.471Z,322.68
2023-04-01T00:44:16.843Z,261.24
2023-04-01T00:45:20.093Z,268.92
2023-04-01T00:46:23.365Z,315
2023-04-01T00:47:26.722Z,268.92
2023-04-01T00:48:30.013Z,307.32
2023-04-01T00:49:32.817Z,-325
2023-04-01T00:50:36.151Z,276.6
2023-04-01T00:51:39.416Z,268.92
2023-04-01T00:52:42.685Z,268.92
2023-04-01T00:53:45.976Z,276.6
2023-04-01T00:54:49.253Z,284.28
2023-04-01T00:55:52.562Z,299.64
2023-04-01T00:56:54.737Z,284.28
2023-04-01T00:57:57.203Z,322.68
2023-04-01T00:59:00.466Z,284.28
2023-04-01T01:00:03.799Z,235.64
2023-04-01T01:01:06.080Z,284.28
2023-04-01T01:02:08.264Z,291.96
2023-04-01T01:03:11.666Z,-307.08
2023-04-01T01:04:14.827Z,253.56
2023-04-01T01:05:18.116Z,-284.04
2023-04-01T01:06:21.576Z,322.68
2023-04-01T01:07:24.699Z,322.68
2023-04-01T01:08:28.168Z,315
2023-04-01T01:09:31.275Z,-317.32
2023-04-01T01:10:34.585Z,-276.36
2023-04-01T01:11:37.878Z,-325
2023-04-01T01:12:41.249Z,-276.36
2023-04-01T01:13:44.497Z,-307.08
2023-04-01T01:14:47.861Z,-220.04
2023-04-01T01:15:50.172Z,-250.76
2023-04-01T01:16:53.325Z,-235.4
2023-04-01T01:17:56.679Z,-227.72
2023-04-01T01:19:00.024Z,-243.08
2023-04-01T01:20:03.219Z,-235.4
2023-04-01T01:21:06.498Z,-235.4
2023-04-01T01:22:09.947Z,-186.76
2023-04-01T01:23:12.117Z,-291.72
2023-04-01T01:24:14.565Z,-220.04
2023-04-01T01:25:16.782Z,-235.4
2023-04-01T01:26:19.024Z,-261
2023-04-01T01:27:22.519Z,-153.48
2023-04-01T01:28:25.708Z,-161.16
2023-04-01T01:29:29.059Z,-194.44
2023-04-01T01:30:32.920Z,-227.72
2023-04-01T01:31:36.218Z,-220.04
2023-04-01T01:32:39.664Z,-179.08
2023-04-01T01:33:42.780Z,-261
2023-04-01T01:34:46.232Z,-235.4
2023-04-01T01:35:49.369Z,-168.84
2023-04-01T01:36:52.657Z,-250.76
2023-04-01T01:37:56.113Z,-243.08
2023-04-01T01:38:59.451Z,-291.72
2023-04-01T01:40:01.558Z,-209.8
2023-04-01T01:41:04.883Z,-268.68
2023-04-01T01:42:08.176Z,-276.36
2023-04-01T01:43:11.633Z,-299.4
2023-04-01T01:44:14.888Z,-261
2023-04-01T01:45:18.017Z,-261
2023-04-01T01:46:21.312Z,-243.08
2023-04-01T01:47:23.761Z,-291.72
2023-04-01T01:48:25.978Z,-284.04
2023-04-01T01:49:28.231Z,-243.08
2023-04-01T01:50:30.705Z,322.68
2023-04-01T01:51:34.027Z,-317.32
2023-04-01T01:52:37.351Z,-307.08
2023-04-01T01:53:40.465Z,-250.76
2023-04-01T01:54:43.843Z,-291.72
2023-04-01T01:55:47.106Z,-299.4
2023-04-01T01:56:50.378Z,-250.76
2023-04-01T01:57:53.593Z,-291.72
2023-04-01T01:58:57.050Z,-227.72
2023-04-01T02:00:00.788Z,-250.76
2023-04-01T02:01:03.618Z,-227.72
2023-04-01T02:02:06.926Z,-291.72
2023-04-01T02:03:10.193Z,-261
2023-04-01T02:04:12.372Z,-250.76
2023-04-01T02:05:15.652Z,-227.72
2023-04-01T02:06:18.951Z,-235.4
2023-04-01T02:07:22.361Z,-307.08
2023-04-01T02:08:25.667Z,-209.8
2023-04-01T02:09:28.856Z,-276.36
2023-04-01T02:10:32.220Z,-291.72
2023-04-01T02:11:34.543Z,-268.68
2023-04-01T02:12:36.876Z,-235.4
2023-04-01T02:13:39.111Z,-299.4
2023-04-01T02:14:41.492Z,-291.72
2023-04-01T02:15:44.764Z,-235.4
2023-04-01T02:16:48.120Z,-276.36
2023-04-01T02:17:51.439Z,-209.8
2023-04-01T02:18:54.688Z,-261
2023-04-01T02:19:57.804Z,-268.68
2023-04-01T02:21:01.278Z,-235.4
2023-04-01T02:22:04.575Z,-202.12
2023-04-01T02:23:07.976Z,-220.04
2023-04-01T02:24:11.291Z,-227.72
2023-04-01T02:25:14.389Z,-227.72
2023-04-01T02:26:17.709Z,-209.8
2023-04-01T02:27:21.020Z,-291.72
2023-04-01T02:28:24.258Z,-227.72
2023-04-01T02:29:27.649Z,-220.04
2023-04-01T02:30:30.994Z,-268.68
2023-04-01T02:31:34.326Z,-261
2023-04-01T02:32:37.605Z,-227.72
2023-04-01T02:33:40.893Z,-261
2023-04-01T02:34:44.145Z,-209.8
2023-04-01T02:35:46.433Z,-276.36
2023-04-01T02:36:48.685Z,-209.8
2023-04-01T02:37:51.948Z,-250.76
2023-04-01T02:38:55.260Z,-227.72
2023-04-01T02:39:58.513Z,-250.76
2023-04-01T02:41:01.960Z,-243.08
2023-04-01T02:42:05.136Z,-220.04
2023-04-01T02:43:08.408Z,-243.08
2023-04-01T02:44:11.688Z,-261
2023-04-01T02:45:15.158Z,-250.76
2023-04-01T02:46:18.490Z,-209.8
2023-04-01T02:47:21.718Z,-284.04
2023-04-01T02:48:25.028Z,-235.4
2023-04-01T02:49:28.242Z,-209.8
2023-04-01T02:50:30.627Z,-209.8
2023-04-01T02:51:33.863Z,-243.08
2023-04-01T02:52:37.184Z,-276.36
2023-04-01T02:53:40.546Z,-209.8
2023-04-01T02:54:43.835Z,-261
2023-04-01T02:55:47.102Z,-268.68
2023-04-01T02:56:50.258Z,-194.44
2023-04-01T02:57:52.698Z,-291.72
2023-04-01T02:58:54.981Z,-209.8
2023-04-01T02:59:58.124Z,-276.36
2023-04-01T03:01:01.579Z,-168.84
2023-04-01T03:02:04.843Z,-220.04
2023-04-01T03:03:08.059Z,-202.12
2023-04-01T03:04:11.453Z,-202.12
2023-04-01T03:05:14.579Z,-179.08
2023-04-01T03:06:17.911Z,-168.84
2023-04-01T03:07:21.184Z,-186.76
2023-04-01T03:08:24.631Z,-209.8
2023-04-01T03:09:27.927Z,-153.48
2023-04-01T03:10:31.073Z,-186.76
2023-04-01T03:11:34.344Z,-186.76
2023-04-01T03:12:36.838Z,-194.44
2023-04-01T03:13:40.111Z,-209.8
2023-04-01T03:14:43.228Z,-179.08
2023-04-01T03:15:46.669Z,-153.48
2023-04-01T03:16:49.945Z,-86.92
2023-04-01T03:17:53.118Z,-145.8
2023-04-01T03:18:56.400Z,-168.84
2023-04-01T03:19:58.697Z,-194.44
2023-04-01T03:21:01.026Z,-220.04
2023-04-01T03:22:03.337Z,-235.4
2023-04-01T03:23:05.793Z,-186.76
2023-04-01T03:24:08.112Z,-161.16
2023-04-01T03:25:10.424Z,-168.84
2023-04-01T03:26:13.666Z,-145.8
2023-04-01T03:27:16.959Z,-168.84
2023-04-01T03:28:20.234Z,-220.04
2023-04-01T03:29:23.553Z,-194.44
2023-04-01T03:30:26.734Z,-243.08
2023-04-01T03:31:30.828Z,-227.72
2023-04-01T03:32:33.984Z,-209.8
2023-04-01T03:33:37.341Z,-194.44
2023-04-01T03:34:40.665Z,-209.8
2023-04-01T03:35:44.000Z,-243.08
2023-04-01T03:36:47.310Z,-168.84
2023-04-01T03:37:50.568Z,-209.8
2023-04-01T03:38:54.032Z,-243.08
2023-04-01T03:39:57.253Z,-194.44
2023-04-01T03:41:00.558Z,-194.44
2023-04-01T03:42:03.851Z,-220.04
2023-04-01T03:43:07.033Z,-153.48
2023-04-01T03:44:10.326Z,-209.8
2023-04-01T03:45:13.775Z,-194.44
2023-04-01T03:46:15.929Z,89.83
2023-04-01T03:47:18.278Z,89.76
2023-04-01T03:48:20.661Z,-255.86
2023-04-01T03:49:22.847Z,-76.67
2023-04-01T03:50:26.347Z,-296.83
2023-04-01T03:51:29.428Z,210.05
2023-04-01T03:52:32.905Z,76.93
2023-04-01T03:53:36.197Z,7.81
2023-04-01T03:54:39.502Z,7.81
2023-04-01T03:55:42.736Z,-10.12
2023-04-01T03:56:45.915Z,-86.92
2023-04-01T03:57:49.313Z,-76.68
2023-04-01T03:58:52.492Z,-76.68
2023-04-01T03:59:55.934Z,-112.52
2023-04-01T04:00:59.250Z,-127.88
2023-04-01T04:02:02.492Z,-135.56
2023-04-01T04:03:04.876Z,-127.88
2023-04-01T04:04:07.976Z,-153.48
2023-04-01T04:05:11.420Z,-168.84
2023-04-01T04:06:14.704Z,-168.84
2023-04-01T04:07:18.001Z,-168.84
2023-04-01T04:08:21.146Z,-235.4
2023-04-01T04:09:24.486Z,-127.88
2023-04-01T04:10:26.884Z,-243.08
2023-04-01T04:11:29.024Z,-168.84
2023-04-01T04:12:31.493Z,-161.16
2023-04-01T04:13:33.747Z,-243.08
2023-04-01T04:14:37.109Z,-227.72
2023-04-01T04:15:40.231Z,-227.72
2023-04-01T04:16:43.544Z,-202.12
2023-04-01T04:17:46.841Z,-291.72
2023-04-01T04:18:50.239Z,-220.04
2023-04-01T04:19:53.513Z,-235.4
2023-04-01T04:20:56.861Z,-161.16
2023-04-01T04:22:00.152Z,-194.44
2023-04-01T04:23:03.341Z,-194.44
2023-04-01T04:24:06.596Z,-194.44
2023-04-01T04:25:09.937Z,-186.76
2023-04-01T04:26:13.286Z,-220.04
2023-04-01T04:27:15.644Z,-194.44
2023-04-01T04:28:18.926Z,-194.44
2023-04-01T04:29:22.108Z,-161.16
2023-04-01T04:30:25.344Z,-168.84
2023-04-01T04:31:28.742Z,-179.08
2023-04-01T04:32:32.050Z,-135.56
2023-04-01T04:33:35.428Z,-209.8
2023-04-01T04:34:37.559Z,-179.08
2023-04-01T04:35:39.925Z,-194.44
2023-04-01T04:36:42.148Z,-161.16
2023-04-01T04:37:44.585Z,-250.76
2023-04-01T04:38:47.934Z,-127.88
2023-04-01T04:39:51.170Z,-194.44
2023-04-01T04:40:54.509Z,-179.08
2023-04-01T04:41:57.772Z,-168.84
2023-04-01T04:43:00.954Z,-145.8
2023-04-01T04:44:04.328Z,-168.84
2023-04-01T04:45:07.512Z,-168.84
2023-04-01T04:46:10.979Z,-135.56
2023-04-01T04:47:14.081Z,-168.84
2023-04-01T04:48:17.443Z,-145.8
2023-04-01T04:49:20.733Z,-186.76
2023-04-01T04:50:23.949Z,-145.8
2023-04-01T04:51:26.362Z,-168.84
2023-04-01T04:52:29.836Z,-145.8
2023-04-01T04:53:32.965Z,-145.8
2023-04-01T04:54:36.134Z,-112.52
2023-04-01T04:55:39.524Z,-209.8
2023-04-01T04:56:42.756Z,-153.48
2023-04-01T04:57:46.121Z,-43.4
2023-04-01T04:58:48.336Z,-161.16
2023-04-01T04:59:50.694Z,-161.16
2023-04-01T05:00:53.926Z,-161.16
2023-04-01T05:01:56.258Z,-179.08
2023-04-01T05:02:58.597Z,-168.84
2023-04-01T05:04:01.851Z,-227.72
2023-04-01T05:05:05.271Z,-194.44
2023-04-01T05:06:08.652Z,-209.8
2023-04-01T05:07:12.548Z,-168.84
2023-04-01T05:08:15.750Z,-179.08
2023-04-01T05:09:19.028Z,-161.16
2023-04-01T05:10:22.434Z,-194.44
2023-04-01T05:11:25.581Z,-209.8
2023-04-01T05:12:29.022Z,-179.08
2023-04-01T05:13:32.373Z,-186.76
2023-04-01T05:14:35.524Z,-194.44
2023-04-01T05:15:38.785Z,-145.8
2023-04-01T05:16:41.023Z,-153.48
2023-04-01T05:17:44.326Z,-94.6
2023-04-01T05:18:47.620Z,-86.92
2023-04-01T05:19:51.036Z,-145.8
2023-04-01T05:20:54.242Z,-168.84
2023-04-01T05:21:57.613Z,-179.08
2023-04-01T05:23:00.778Z,-209.8
2023-04-01T05:24:03.099Z,-112.52
2023-04-01T05:25:05.395Z,-145.8
2023-04-01T05:26:07.797Z,-153.48
2023-04-01T05:27:10.022Z,-127.88
2023-04-01T05:28:13.297Z,-179.08
2023-04-01T05:29:16.624Z,-179.08
2023-04-01T05:30:19.957Z,-153.48
2023-04-01T05:31:23.197Z,-127.88
2023-04-01T05:32:26.508Z,-51.08
2023-04-01T05:33:29.808Z,-153.48
2023-04-01T05:34:33.294Z,-161.16
2023-04-01T05:35:36.354Z,-153.48
2023-04-01T05:36:39.667Z,-112.52
2023-04-01T05:37:42.920Z,-120.2
2023-04-01T05:38:46.379Z,-112.52
2023-04-01T05:39:49.530Z,-145.8
2023-04-01T05:40:51.831Z,-127.88
2023-04-01T05:41:55.285Z,-127.88
2023-04-01T05:42:58.470Z,-153.48
2023-04-01T05:44:01.750Z,-94.6
2023-04-01T05:45:05.023Z,-135.56
2023-04-01T05:46:08.297Z,-127.88
2023-04-01T05:47:11.573Z,-153.48
2023-04-01T05:48:13.955Z,-135.56
2023-04-01T05:49:16.233Z,-194.44
2023-04-01T05:50:18.526Z,-145.8
2023-04-01T05:51:20.923Z,-179.08
2023-04-01T05:52:24.150Z,-135.56
2023-04-01T05:53:27.548Z,-161.16
2023-04-01T05:55:33.027Z,-179.08
2023-04-01T05:56:35.521Z,-168.84
2023-04-01T05:57:38.642Z,-186.76
2023-04-01T05:58:41.983Z,-145.8
2023-04-01T05:59:45.351Z,-186.76
2023-04-01T06:00:48.564Z,-168.84
2023-04-01T06:01:51.791Z,-161.16
2023-04-01T06:02:55.190Z,-161.16
2023-04-01T06:03:58.497Z,-179.08
2023-04-01T06:05:01.753Z,-161.16
2023-04-01T06:06:05.210Z,-102.28
2023-04-01T06:07:08.296Z,-179.08
2023-04-01T06:08:11.787Z,-135.56
2023-04-01T06:09:14.839Z,-179.08
2023-04-01T06:10:17.133Z,-153.48
2023-04-01T06:11:20.449Z,-168.84
2023-04-01T06:12:23.729Z,-127.88
2023-04-01T06:13:26.172Z,-135.56
2023-04-01T06:14:28.343Z,-220.04
2023-04-01T06:15:30.641Z,-202.12
2023-04-01T06:16:33.148Z,-153.48
2023-04-01T06:17:36.342Z,-161.16
2023-04-01T06:18:39.559Z,-161.16
2023-04-01T06:19:42.958Z,-94.6
2023-04-01T06:20:46.141Z,-161.16
2023-04-01T06:21:49.436Z,-168.84
2023-04-01T06:22:52.815Z,-145.8
2023-04-01T06:23:56.122Z,-112.52
2023-04-01T06:24:59.332Z,-153.48
2023-04-01T06:26:02.659Z,-94.6
2023-04-01T06:27:06.649Z,-135.56
2023-04-01T06:28:10.027Z,-135.56
2023-04-01T06:29:13.220Z,-153.48
2023-04-01T06:30:15.522Z,-94.6
2023-04-01T06:31:18.756Z,-145.8
2023-04-01T06:32:22.152Z,-127.88
2023-04-01T06:33:25.452Z,-76.68
2023-04-01T06:34:28.644Z,-135.56
2023-04-01T06:35:32.092Z,-168.84
2023-04-01T06:36:35.497Z,-120.2
2023-04-01T06:37:37.554Z,-179.08
2023-04-01T06:38:39.858Z,-135.56
2023-04-01T06:39:42.307Z,-179.08
2023-04-01T06:40:45.830Z,-161.16
2023-04-01T06:41:49.057Z,-220.04
2023-04-01T06:42:52.155Z,-179.08
2023-04-01T06:43:55.623Z,-145.8
2023-04-01T06:44:58.925Z,-227.72
2023-04-01T06:46:02.447Z,-168.84
2023-04-01T06:47:05.351Z,-161.16
2023-04-01T06:48:08.772Z,-145.8
2023-04-01T06:49:12.049Z,-145.8
2023-04-01T06:50:15.411Z,-202.12
2023-04-01T06:51:18.643Z,-112.52
2023-04-01T06:52:21.926Z,-161.16
2023-04-01T06:53:25.305Z,-168.84
2023-04-01T06:54:27.571Z,-127.88
2023-04-01T06:55:30.672Z,-127.88
2023-04-01T06:56:34.144Z,-168.84
2023-04-01T06:57:37.413Z,-94.6
2023-04-01T06:58:40.820Z,-168.84
2023-04-01T06:59:44.032Z,-145.8
2023-04-01T07:00:47.311Z,-145.8
2023-04-01T07:01:49.622Z,-145.8
2023-04-01T07:02:51.780Z,-153.48
2023-04-01T07:03:55.070Z,-51.08
2023-04-01T07:04:57.544Z,-161.16
2023-04-01T07:05:59.847Z,-86.92
2023-04-01T07:07:03.100Z,-112.52
2023-04-01T07:08:07.015Z,-153.48
2023-04-01T07:09:10.389Z,-135.55
2023-04-01T07:10:13.688Z,-25.5
2023-04-01T07:11:16.953Z,-220.05
2023-04-01T07:12:20.182Z,38.52
2023-04-01T07:14:26.872Z,174.2
2023-04-01T07:15:29.969Z,189.56
2023-04-01T07:16:33.421Z,235.64
2023-04-01T07:17:36.780Z,212.6
2023-04-01T07:18:40.055Z,220.28
2023-04-01T07:19:42.352Z,197.24
2023-04-01T07:20:45.655Z,291.96
2023-04-01T07:21:48.836Z,291.96
2023-04-01T07:22:52.176Z,253.56
2023-04-01T07:23:55.491Z,204.92
2023-04-01T07:26:02.074Z,235.64
2023-04-01T07:27:04.393Z,307.32
2023-04-01T07:28:07.507Z,284.28
2023-04-01T07:29:09.996Z,235.64
2023-04-01T07:30:13.296Z,261.24
2023-04-01T07:31:16.548Z,227.96
2023-04-01T07:32:19.800Z,243.32
2023-04-01T07:33:23.105Z,2.56
2023-04-01T07:34:26.399Z,107.64
2023-04-01T07:35:29.592Z,158.84
2023-04-01T07:36:33.043Z,143.48
2023-04-01T07:37:36.342Z,115.32
2023-04-01T07:38:38.485Z,107.64
2023-04-01T07:39:40.944Z,107.64
2023-04-01T07:40:44.145Z,107.64
2023-04-01T07:41:47.563Z,115.32
2023-04-01T07:42:50.750Z,120.44
2023-04-01T07:43:54.115Z,128.12
2023-04-01T07:44:57.370Z,128.12
2023-04-01T07:46:00.727Z,99.96
2023-04-01T07:47:03.973Z,99.96
2023-04-01T07:48:07.297Z,115.32
2023-04-01T07:49:10.621Z,128.12
2023-04-01T07:50:13.894Z,115.32
2023-04-01T07:51:17.153Z,107.64
2023-04-01T07:52:20.534Z,158.84
2023-04-01T07:53:22.781Z,107.64
2023-04-01T07:54:26.033Z,92.28
2023-04-01T07:55:29.329Z,107.64
2023-04-01T07:56:32.589Z,115.32
2023-04-01T07:57:35.933Z,128.12
2023-04-01T07:58:39.202Z,120.44
2023-04-01T07:59:42.404Z,107.64
2023-04-01T08:00:44.832Z,128.12
2023-04-01T08:01:47.055Z,69.24
2023-04-01T08:02:49.300Z,128.12
2023-04-01T08:03:51.912Z,135.8
2023-04-01T08:04:55.093Z,143.48
2023-04-01T08:05:58.415Z,2.56
2023-04-01T08:07:01.650Z,143.48
2023-04-01T08:08:04.892Z,158.84
2023-04-01T08:09:08.189Z,158.84
2023-04-01T08:10:11.569Z,158.84
2023-04-01T08:11:14.825Z,143.48
2023-04-01T08:12:18.080Z,166.52
2023-04-01T08:13:21.390Z,151.16
2023-04-01T08:14:24.520Z,181.88
2023-04-01T08:15:27.952Z,115.32
2023-04-01T08:16:31.238Z,197.24
2023-04-01T08:17:33.613Z,158.84
2023-04-01T08:18:36.701Z,135.8
2023-04-01T08:19:40.125Z,99.96
2023-04-01T08:20:43.298Z,128.12
2023-04-01T08:21:46.741Z,166.52
2023-04-01T08:22:50.017Z,158.84
2023-04-01T08:23:53.372Z,143.48
2023-04-01T08:24:55.630Z,92.28
2023-04-01T08:25:57.844Z,120.44
2023-04-01T08:27:01.392Z,158.84
2023-04-01T08:28:03.672Z,143.48
2023-04-01T08:29:06.959Z,115.32
2023-04-01T08:30:10.391Z,169.07
2023-04-01T08:31:13.651Z,220.27
2023-04-01T08:32:16.968Z,248.43
2023-04-01T08:33:20.224Z,274.03
2023-04-01T08:34:23.476Z,299.63
2023-04-01T08:35:26.688Z,-232.85
2023-04-01T08:36:30.167Z,-197.01
2023-04-01T08:37:33.455Z,-127.89
2023-04-01T08:38:36.567Z,-168.85
2023-04-01T08:39:40.019Z,-168.85
2023-04-01T08:40:43.153Z,2.56
2023-04-01T08:41:45.644Z,-163.73
2023-04-01T08:42:48.874Z,-184.21
2023-04-01T08:43:52.090Z,-140.69
2023-04-01T08:44:55.442Z,-197.01
2023-04-01T08:45:58.774Z,-135.57
2023-04-01T08:47:02.093Z,-163.73
2023-04-01T08:48:05.380Z,-176.53
2023-04-01T08:49:07.540Z,-135.57
2023-04-01T08:50:10.171Z,-220.05
2023-04-01T08:51:12.451Z,-156.05
2023-04-01T08:52:14.758Z,-140.69
2023-04-01T08:53:17.987Z,-168.85
2023-04-01T08:54:21.292Z,-135.57
2023-04-01T08:55:24.519Z,-148.37
2023-04-01T08:56:27.820Z,-107.41
2023-04-01T08:57:31.215Z,-84.37
2023-04-01T08:58:34.444Z,-112.53
2023-04-01T08:59:37.709Z,-84.37
2023-04-01T09:00:41.069Z,-56.21
2023-04-01T09:01:44.244Z,-76.69
2023-04-01T09:02:47.515Z,-120.21
2023-04-01T09:03:50.817Z,-92.05
2023-04-01T09:04:54.185Z,-71.57
2023-04-01T09:05:56.562Z,-63.89
2023-04-01T09:06:59.849Z,-84.37
2023-04-01T09:08:03.147Z,-63.89
2023-04-01T09:09:06.477Z,-40.85
2023-04-01T09:10:10.278Z,-5.01
2023-04-01T09:11:13.481Z,46.2
2023-04-01T09:12:16.874Z,30.84
2023-04-01T09:13:19.284Z,2.56
2023-04-01T09:14:21.554Z,25.72
2023-04-01T09:15:23.771Z,25.72
2023-04-01T09:16:26.214Z,2.68
2023-04-01T09:17:29.292Z,25.72
2023-04-01T09:18:32.734Z,-28.05
2023-04-01T09:19:36.035Z,61.56
2023-04-01T09:20:39.353Z,38.52
2023-04-01T09:21:42.583Z,92.28
2023-04-01T09:22:45.933Z,69.24
2023-04-01T09:24:52.507Z,-5.01
2023-04-01T09:25:55.794Z,-5.01
2023-04-01T09:26:58.933Z,46.2
2023-04-01T09:28:01.388Z,18.04
2023-04-01T09:29:04.577Z,84.6
2023-04-01T09:30:07.872Z,92.28
2023-04-01T09:31:11.262Z,92.28
2023-04-01T09:32:14.537Z,120.44
2023-04-01T09:33:17.810Z,99.96
2023-04-01T09:34:21.228Z,25.72
2023-04-01T09:35:24.399Z,120.44
2023-04-01T09:36:27.568Z,46.2
2023-04-01T09:37:31.067Z,107.64
2023-04-01T09:38:33.210Z,107.64
2023-04-01T09:39:35.664Z,120.44
2023-04-01T09:40:38.783Z,84.6
2023-04-01T09:41:41.112Z,143.48
2023-04-01T09:42:43.519Z,158.84
2023-04-01T09:43:46.743Z,61.56
2023-04-01T09:44:50.008Z,53.88
2023-04-01T09:45:53.334Z,107.64
2023-04-01T09:46:56.735Z,92.28
2023-04-01T09:47:59.973Z,204.92
2023-04-01T09:49:03.313Z,128.12
2023-04-01T09:50:07.155Z,99.96
2023-04-01T09:51:10.609Z,120.44
2023-04-01T09:52:13.914Z,166.52
2023-04-01T09:53:17.129Z,181.88
2023-04-01T09:54:20.304Z,143.48
2023-04-01T09:55:23.792Z,174.2
2023-04-01T09:56:26.034Z,204.92
2023-04-01T09:57:29.266Z,204.92
2023-04-01T09:58:32.494Z,174.2
2023-04-01T09:59:35.958Z,243.32
2023-04-01T10:00:39.107Z,197.24
2023-04-01T10:01:42.547Z,204.92
2023-04-01T10:02:45.663Z,197.24
2023-04-01T10:03:48.122Z,268.92
2023-04-01T10:04:50.276Z,227.96
2023-04-01T10:06:57.062Z,212.6
2023-04-01T10:08:00.350Z,227.96
2023-04-01T10:09:03.635Z,235.64
2023-04-01T10:10:07.464Z,291.96
2023-04-01T10:11:10.744Z,220.28
2023-04-01T10:12:13.925Z,299.64
2023-04-01T10:13:17.314Z,284.28
2023-04-01T10:14:20.472Z,315
2023-04-01T10:15:23.834Z,268.92
2023-04-01T10:16:27.150Z,-317.32
2023-04-01T10:17:30.469Z,243.32
2023-04-01T10:18:32.731Z,261.24
2023-04-01T10:19:35.864Z,-325
2023-04-01T10:20:39.358Z,261.24
2023-04-01T10:21:42.450Z,299.64
2023-04-01T10:22:45.926Z,-307.08
2023-04-01T10:23:49.229Z,307.32
2023-04-01T10:24:52.480Z,276.6
2023-04-01T10:25:55.606Z,-317.32
2023-04-01T10:26:58.015Z,261.24
2023-04-01T10:28:00.287Z,-291.72
2023-04-01T10:29:02.673Z,322.68
2023-04-01T10:30:05.043Z,322.68
2023-04-01T10:31:08.272Z,-307.08
2023-04-01T10:32:10.689Z,-261
2023-04-01T10:33:12.752Z,-250.76
2023-04-01T10:34:16.183Z,299.64
2023-04-01T10:35:19.488Z,-284.04
2023-04-01T10:36:22.861Z,-307.08
2023-04-01T10:37:26.117Z,-284.04
2023-04-01T10:38:29.213Z,-227.72
2023-04-01T10:39:32.693Z,-250.76
2023-04-01T10:40:36.024Z,-250.76
2023-04-01T10:41:39.192Z,-291.72
2023-04-01T10:42:42.574Z,-268.68
2023-04-01T10:43:45.667Z,-243.08
2023-04-01T10:44:48.984Z,-307.08
2023-04-01T10:45:52.378Z,-227.72
2023-04-01T10:46:54.576Z,-250.76
2023-04-01T10:47:57.979Z,-250.76
2023-04-01T10:49:01.185Z,-307.08
2023-04-01T10:50:04.480Z,-307.08
2023-04-01T10:51:07.870Z,-227.72
2023-04-01T10:52:11.195Z,-168.84
2023-04-01T10:53:14.416Z,-179.08
2023-04-01T10:54:16.790Z,-209.8
2023-04-01T10:55:19.085Z,-209.8
2023-04-01T10:56:22.245Z,-179.08
2023-04-01T10:57:24.701Z,-261
2023-04-01T10:58:26.843Z,-186.76
2023-04-01T10:59:30.499Z,-227.72
2023-04-01T11:00:33.619Z,-168.84
2023-04-01T11:01:36.908Z,-202.12
2023-04-01T11:02:40.176Z,-209.8
2023-04-01T11:03:43.517Z,-145.8
2023-04-01T11:04:46.610Z,-250.76
2023-04-01T11:05:49.932Z,-168.84
2023-04-01T11:06:53.361Z,-268.68
2023-04-01T11:07:56.618Z,-179.08
2023-04-01T11:08:59.889Z,-261
2023-04-01T11:10:03.269Z,-317.32
2023-04-01T11:11:06.573Z,-235.4
2023-04-01T11:12:08.820Z,-194.44
2023-04-01T11:13:12.104Z,-202.12
2023-04-01T11:14:15.473Z,-179.08
2023-04-01T11:15:18.535Z,-153.48
2023-04-01T11:16:22.022Z,-161.16
2023-04-01T11:17:25.275Z,-168.84
2023-04-01T11:18:28.411Z,-120.2
2023-04-01T11:19:30.736Z,-168.84
2023-04-01T11:20:33.021Z,-145.8
2023-04-01T11:21:35.376Z,-202.12
2023-04-01T11:22:37.653Z,-120.2
2023-04-01T11:23:40.959Z,-202.12
2023-04-01T11:24:44.243Z,-186.76
2023-04-01T11:25:47.551Z,-153.48
2023-04-01T11:26:50.835Z,-202.12
2023-04-01T11:27:54.170Z,-94.6
2023-04-01T11:28:57.400Z,-112.52
2023-04-01T11:30:00.693Z,-194.44
2023-04-01T11:31:03.989Z,-135.56
2023-04-01T11:32:07.427Z,-209.8
2023-04-01T11:33:10.746Z,-127.88
2023-04-01T11:34:14.034Z,-153.48
2023-04-01T11:35:17.304Z,-179.08
2023-04-01T11:37:22.910Z,-127.88
2023-04-01T11:38:26.336Z,-94.6
2023-04-01T11:39:29.637Z,-145.8
2023-04-01T11:40:32.894Z,-69
2023-04-01T11:41:36.084Z,-153.48
2023-04-01T11:42:39.386Z,-86.92
2023-04-01T11:43:42.676Z,-61.32
2023-04-01T11:44:44.980Z,-17.8
2023-04-01T11:45:47.302Z,-94.6
2023-04-01T11:46:50.649Z,-127.88
2023-04-01T11:47:53.865Z,-51.08
2023-04-01T11:48:56.217Z,-112.52
2023-04-01T11:49:58.489Z,-61.32
2023-04-01T11:51:01.882Z,-120.2
2023-04-01T11:52:05.098Z,-43.4
2023-04-01T11:53:08.362Z,-76.68
2023-04-01T11:54:11.695Z,-76.68
2023-04-01T11:55:14.986Z,-94.6
2023-04-01T11:56:18.235Z,-10.12
2023-04-01T11:57:21.534Z,-25.48
2023-04-01T11:58:24.827Z,-43.4
2023-04-01T11:59:28.112Z,-43.4
2023-04-01T12:00:31.402Z,-76.68
2023-04-01T12:01:34.691Z,-76.68
2023-04-01T12:02:37.984Z,-94.6
2023-04-01T12:03:40.311Z,-25.48
2023-04-01T12:04:43.622Z,-61.32
2023-04-01T12:05:46.901Z,-76.68
2023-04-01T12:06:50.187Z,-10.12
2023-04-01T12:07:53.469Z,-25.48
2023-04-01T12:10:00.102Z,51.33
2023-04-01T12:11:03.345Z,-43.4
2023-04-01T12:12:05.660Z,-76.68
2023-04-01T12:13:07.999Z,-61.32
2023-04-01T12:14:10.534Z,-43.4
2023-04-01T12:15:12.853Z,-10.12
2023-04-01T12:16:16.131Z,-25.48
2023-04-01T12:17:19.431Z,25.73
2023-04-01T12:18:22.720Z,41.09
2023-04-01T12:19:26.012Z,41.09
2023-04-01T12:20:29.306Z,25.73
2023-04-01T12:21:32.618Z,41.09
2023-04-01T12:22:35.886Z,76.93
2023-04-01T12:23:39.188Z,15.49
2023-04-01T12:24:42.465Z,94.85
2023-04-01T12:25:45.785Z,25.73
2023-04-01T12:26:49.116Z,59.01
2023-04-01T12:27:52.331Z,7.81
2023-04-01T12:28:54.681Z,59.01
2023-04-01T12:29:57.951Z,7.81
2023-04-01T12:31:01.259Z,-17.8
2023-04-01T12:32:04.544Z,7.81
2023-04-01T12:33:07.821Z,76.93
2023-04-01T12:34:11.113Z,69.25
2023-04-01T12:35:14.406Z,87.17
2023-04-01T12:36:16.721Z,7.81
2023-04-01T12:37:19.027Z,94.85
2023-04-01T12:38:21.355Z,25.73
2023-04-01T12:39:23.642Z,33.41
2023-04-01T12:40:27.021Z,76.93
2023-04-01T12:41:30.237Z,87.17
2023-04-01T12:42:33.504Z,41.09
2023-04-01T12:43:36.838Z,87.17
2023-04-01T12:44:40.166Z,51.33
2023-04-01T12:45:43.393Z,120.45
2023-04-01T12:46:46.677Z,112.77
2023-04-01T12:47:49.992Z,120.45
2023-04-01T12:48:53.288Z,69.25
2023-04-01T12:49:56.562Z,41.09
2023-04-01T12:50:59.928Z,94.85
2023-04-01T12:52:03.154Z,120.45
2023-04-01T12:53:05.462Z,87.17
2023-04-01T12:54:08.781Z,94.85
2023-04-01T12:55:12.041Z,202.37
2023-04-01T12:56:15.334Z,148.61
2023-04-01T12:57:18.612Z,138.37
2023-04-01T12:58:21.909Z,148.61
2023-04-01T12:59:24.239Z,192.13
2023-04-01T13:00:26.569Z,166.53
2023-04-01T13:01:28.856Z,112.77
2023-04-01T13:02:31.269Z,120.45
2023-04-01T13:03:33.497Z,220.29
2023-04-01T13:04:36.755Z,184.45
2023-04-01T13:05:40.075Z,174.21
2023-04-01T13:06:43.431Z,94.85
2023-04-01T13:07:46.708Z,130.69
2023-04-01T13:08:49.920Z,220.29